createdAt,value
2022-12-25T00:00:40.197Z,13.30
2022-12-25T00:01:40.034Z,14.70
2022-12-25T00:02:40.178Z,13.30
2022-12-25T00:03:40.260Z,17.30
2022-12-25T00:04:40.006Z,10.90
2022-12-25T00:05:40.001Z,11.30
2022-12-25T00:06:40.004Z,11.50
2022-12-25T00:07:40.153Z,13.00
2022-12-25T00:08:39.988Z,14.60
2022-12-25T00:09:39.918Z,14.30
2022-12-25T00:10:45.202Z,11.70
2022-12-25T00:11:39.939Z,12.00
2022-12-25T00:12:39.927Z,14.40
2022-12-25T00:13:39.913Z,11.70
2022-12-25T00:14:39.927Z,11.80
2022-12-25T00:15:39.879Z,10.40
2022-12-25T00:16:40.034Z,10.70
2022-12-25T00:17:39.878Z,14.40
2022-12-25T00:18:39.870Z,12.30
2022-12-25T00:19:39.886Z,15.20
2022-12-25T00:20:39.865Z,12.70
2022-12-25T00:21:39.834Z,10.80
2022-12-25T00:22:39.860Z,11.00
2022-12-25T00:23:39.818Z,10.70
2022-12-25T00:24:39.793Z,13.90
2022-12-25T00:25:39.779Z,11.30
2022-12-25T00:26:39.774Z,11.80
2022-12-25T00:27:39.737Z,11.00
2022-12-25T00:28:39.775Z,11.20
2022-12-25T00:29:39.893Z,8.90
2022-12-25T00:30:39.720Z,10.40
2022-12-25T00:31:39.762Z,10.70
2022-12-25T00:32:39.755Z,10.90
2022-12-25T00:33:39.669Z,10.90
2022-12-25T00:34:39.740Z,12.00
2022-12-25T00:35:39.673Z,9.70
2022-12-25T00:36:42.144Z,8.70
2022-12-25T00:37:39.657Z,10.20
2022-12-25T00:38:39.641Z,9.70
2022-12-25T00:39:39.595Z,9.00
2022-12-25T00:40:39.637Z,11.20
2022-12-25T00:41:39.609Z,8.00
2022-12-25T00:42:39.633Z,8.40
2022-12-25T00:43:39.595Z,10.30
2022-12-25T00:44:40.113Z,8.50
2022-12-25T00:45:39.609Z,8.80
2022-12-25T00:46:39.594Z,8.60
2022-12-25T00:47:39.531Z,7.90
2022-12-25T00:48:39.559Z,11.80
2022-12-25T00:49:39.508Z,7.80
2022-12-25T00:50:39.535Z,10.30
2022-12-25T00:51:39.556Z,9.10
2022-12-25T00:52:39.486Z,9.80
2022-12-25T00:53:39.496Z,8.50
2022-12-25T00:54:39.459Z,9.50
2022-12-25T00:55:39.460Z,10.10
2022-12-25T00:56:39.467Z,8.30
2022-12-25T00:57:39.416Z,7.50
2022-12-25T00:58:39.445Z,7.60
2022-12-25T00:59:39.408Z,10.60
2022-12-25T01:00:39.466Z,8.60
2022-12-25T01:01:39.711Z,8.40
2022-12-25T01:02:39.505Z,9.80
2022-12-25T01:03:39.381Z,7.80
2022-12-25T01:04:39.368Z,10.30
2022-12-25T01:05:39.344Z,8.40
2022-12-25T01:06:39.342Z,9.00
2022-12-25T01:07:39.295Z,11.80
2022-12-25T01:08:39.340Z,7.80
2022-12-25T01:09:39.298Z,9.40
2022-12-25T01:10:39.319Z,7.30
2022-12-25T01:11:39.379Z,8.30
2022-12-25T01:12:39.286Z,7.40
2022-12-25T01:13:39.277Z,7.40
2022-12-25T01:14:39.246Z,8.50
2022-12-25T01:15:39.207Z,7.20
2022-12-25T01:16:39.362Z,9.20
2022-12-25T01:17:39.222Z,7.20
2022-12-25T01:18:39.287Z,7.40
2022-12-25T01:19:39.186Z,8.80
2022-12-25T01:20:39.220Z,7.30
2022-12-25T01:21:39.206Z,7.60
2022-12-25T01:22:39.197Z,7.50
2022-12-25T01:23:39.149Z,6.50
2022-12-25T01:24:39.155Z,13.30
2022-12-25T01:25:39.124Z,5.50
2022-12-25T01:26:39.140Z,12.40
2022-12-25T01:27:39.080Z,7.10
2022-12-25T01:28:39.120Z,8.70
2022-12-25T01:29:39.055Z,6.30
2022-12-25T01:30:39.126Z,7.80
2022-12-25T01:31:39.120Z,6.60
2022-12-25T01:32:39.056Z,7.10
2022-12-25T01:33:39.011Z,8.80
2022-12-25T01:34:39.070Z,9.50
2022-12-25T01:35:39.079Z,8.80
2022-12-25T01:36:39.055Z,8.70
2022-12-25T01:37:38.992Z,8.60
2022-12-25T01:38:38.996Z,9.40
2022-12-25T01:39:38.958Z,7.70
2022-12-25T01:40:39.000Z,5.60
2022-12-25T01:41:38.933Z,7.30
2022-12-25T01:42:38.971Z,10.50
2022-12-25T01:43:39.067Z,7.00
2022-12-25T01:44:38.969Z,7.90
2022-12-25T01:45:38.964Z,6.30
2022-12-25T01:46:38.922Z,8.10
2022-12-25T01:47:38.869Z,6.50
2022-12-25T01:48:38.965Z,12.60
2022-12-25T01:49:38.857Z,7.00
2022-12-25T01:50:38.901Z,6.50
2022-12-25T01:51:38.867Z,10.70
2022-12-25T01:52:38.839Z,9.70
2022-12-25T01:53:38.977Z,6.00
2022-12-25T01:54:38.808Z,10.30
2022-12-25T01:55:38.798Z,6.70
2022-12-25T01:56:38.862Z,7.00
2022-12-25T01:57:38.761Z,8.00
2022-12-25T01:58:38.801Z,6.20
2022-12-25T01:59:38.803Z,11.60
2022-12-25T02:00:38.843Z,5.70
2022-12-25T02:01:38.895Z,6.00
2022-12-25T02:02:38.930Z,5.40
2022-12-25T02:03:38.687Z,6.50
2022-12-25T02:04:39.084Z,5.50
2022-12-25T02:05:38.699Z,8.90
2022-12-25T02:06:38.684Z,9.20
2022-12-25T02:07:38.645Z,6.10
2022-12-25T02:08:38.701Z,5.90
2022-12-25T02:09:38.627Z,7.70
2022-12-25T02:10:38.697Z,7.00
2022-12-25T02:11:38.698Z,6.00
2022-12-25T02:12:38.624Z,7.40
2022-12-25T02:13:38.617Z,5.50
2022-12-25T02:14:38.598Z,5.90
2022-12-25T02:15:38.571Z,5.70
2022-12-25T02:16:56.674Z,6.90
2022-12-25T02:17:38.559Z,6.40
2022-12-25T02:18:38.672Z,8.40
2022-12-25T02:19:38.546Z,6.40
2022-12-25T02:20:38.544Z,4.60
2022-12-25T02:21:38.487Z,6.40
2022-12-25T02:22:38.585Z,5.30
2022-12-25T02:23:38.496Z,5.50
2022-12-25T02:24:38.500Z,5.20
2022-12-25T02:25:38.477Z,5.80
2022-12-25T02:26:38.488Z,7.40
2022-12-25T02:27:38.437Z,4.70
2022-12-25T02:28:39.527Z,5.50
2022-12-25T02:29:38.420Z,6.30
2022-12-25T02:30:38.448Z,4.80
2022-12-25T02:31:38.517Z,5.20
2022-12-25T02:32:38.398Z,5.40
2022-12-25T02:33:38.404Z,6.10
2022-12-25T02:34:38.386Z,6.00
2022-12-25T02:35:38.641Z,5.30
2022-12-25T02:36:38.394Z,5.10
2022-12-25T02:37:38.357Z,5.10
2022-12-25T02:38:38.349Z,5.10
2022-12-25T02:39:38.317Z,5.30
2022-12-25T02:40:38.441Z,4.30
2022-12-25T02:41:38.293Z,4.30
2022-12-25T02:42:38.324Z,4.80
2022-12-25T02:43:38.281Z,5.10
2022-12-25T02:44:38.274Z,4.20
2022-12-25T02:45:38.342Z,5.10
2022-12-25T02:46:38.281Z,4.40
2022-12-25T02:47:38.223Z,4.80
2022-12-25T02:48:38.293Z,4.20
2022-12-25T02:49:38.262Z,4.50
2022-12-25T02:50:38.275Z,3.90
2022-12-25T02:51:38.241Z,4.40
2022-12-25T02:52:38.212Z,4.80
2022-12-25T02:53:38.221Z,3.80
2022-12-25T02:54:38.191Z,4.50
2022-12-25T02:55:38.249Z,4.80
2022-12-25T02:56:38.108Z,3.40
2022-12-25T02:57:38.164Z,3.50
2022-12-25T02:58:38.103Z,4.60
2022-12-25T02:59:38.131Z,4.60
2022-12-25T03:00:38.098Z,4.60
2022-12-25T03:01:38.186Z,5.10
2022-12-25T03:02:38.124Z,3.50
2022-12-25T03:03:38.184Z,3.90
2022-12-25T03:04:38.045Z,3.60
2022-12-25T03:05:38.069Z,5.10
2022-12-25T03:06:38.014Z,3.90
2022-12-25T03:07:38.040Z,3.50
2022-12-25T03:08:38.028Z,4.10
2022-12-25T03:09:38.023Z,3.90
2022-12-25T03:10:37.985Z,4.30
2022-12-25T03:11:38.006Z,4.40
2022-12-25T03:12:38.048Z,4.00
2022-12-25T03:13:38.056Z,4.50
2022-12-25T03:14:37.954Z,4.00
2022-12-25T03:15:37.958Z,3.50
2022-12-25T03:16:38.194Z,3.80
2022-12-25T03:17:37.943Z,3.60
2022-12-25T03:18:37.978Z,3.20
2022-12-25T03:19:37.905Z,3.80
2022-12-25T03:20:37.890Z,2.80
2022-12-25T03:21:37.885Z,3.70
2022-12-25T03:22:37.884Z,4.20
2022-12-25T03:23:37.906Z,3.50
2022-12-25T03:24:37.809Z,3.40
2022-12-25T03:25:37.835Z,3.70
2022-12-25T03:26:37.813Z,3.70
2022-12-25T03:27:37.833Z,3.20
2022-12-25T03:28:37.789Z,3.20
2022-12-25T03:29:37.824Z,6.80
2022-12-25T03:30:37.821Z,3.70
2022-12-25T03:31:37.764Z,3.60
2022-12-25T03:32:37.749Z,4.90
2022-12-25T03:33:45.045Z,3.30
2022-12-25T03:34:37.751Z,3.10
2022-12-25T03:35:37.824Z,3.40
2022-12-25T03:36:37.805Z,3.50
2022-12-25T03:37:37.732Z,2.90
2022-12-25T03:38:37.795Z,3.30
2022-12-25T03:39:37.680Z,3.40
2022-12-25T03:40:37.680Z,4.40
2022-12-25T03:41:37.686Z,3.80
2022-12-25T03:42:37.637Z,3.60
2022-12-25T03:43:37.629Z,3.40
2022-12-25T03:44:37.628Z,3.40
2022-12-25T03:45:37.623Z,3.30
2022-12-25T03:46:37.712Z,2.80
2022-12-25T03:47:37.648Z,2.80
2022-12-25T03:48:37.548Z,3.30
2022-12-25T03:49:37.596Z,3.10
2022-12-25T03:50:37.541Z,3.80
2022-12-25T03:51:37.551Z,2.50
2022-12-25T03:52:37.541Z,2.60
2022-12-25T03:53:37.551Z,3.60
2022-12-25T03:54:37.514Z,3.10
2022-12-25T03:55:37.537Z,3.70
2022-12-25T03:56:37.472Z,3.40
2022-12-25T03:57:37.511Z,3.40
2022-12-25T03:58:37.476Z,3.10
2022-12-25T03:59:37.497Z,2.50
2022-12-25T04:00:37.451Z,2.80
2022-12-25T04:01:37.509Z,2.90
2022-12-25T04:02:37.650Z,6.80
2022-12-25T04:03:37.761Z,5.60
2022-12-25T04:04:37.377Z,2.90
2022-12-25T04:05:37.436Z,4.00
2022-12-25T04:06:37.396Z,3.10
2022-12-25T04:07:37.478Z,3.20
2022-12-25T04:08:37.389Z,2.90
2022-12-25T04:09:37.411Z,3.10
2022-12-25T04:10:37.341Z,3.60
2022-12-25T04:11:37.400Z,2.70
2022-12-25T04:12:37.307Z,3.00
2022-12-25T04:13:37.325Z,2.70
2022-12-25T04:14:37.311Z,3.10
2022-12-25T04:15:37.955Z,2.70
2022-12-25T04:16:37.279Z,2.90
2022-12-25T04:17:37.337Z,3.20
2022-12-25T04:18:37.245Z,2.90
2022-12-25T04:19:37.306Z,2.60
2022-12-25T04:20:37.256Z,2.50
2022-12-25T04:21:37.235Z,3.00
2022-12-25T04:22:37.302Z,2.90
2022-12-25T04:23:36.252Z,2.80
2022-12-25T04:24:37.523Z,2.00
2022-12-25T04:25:37.249Z,3.50
2022-12-25T04:26:37.164Z,2.60
2022-12-25T04:27:37.155Z,2.30
2022-12-25T04:28:37.149Z,2.50
2022-12-25T04:29:37.610Z,2.90
2022-12-25T04:30:37.107Z,3.20
2022-12-25T04:31:37.241Z,5.60
2022-12-25T04:32:37.112Z,2.60
2022-12-25T04:33:37.167Z,2.30
2022-12-25T04:34:37.087Z,2.80
2022-12-25T04:35:37.122Z,2.50
2022-12-25T04:36:37.041Z,2.30
2022-12-25T04:37:37.099Z,3.20
2022-12-25T04:38:37.034Z,2.10
2022-12-25T04:39:37.030Z,2.50
2022-12-25T04:40:37.017Z,2.70
2022-12-25T04:41:37.024Z,2.60
2022-12-25T04:42:37.014Z,2.90
2022-12-25T04:43:37.017Z,1.90
2022-12-25T04:44:36.954Z,3.00
2022-12-25T04:45:36.977Z,3.30
2022-12-25T04:46:37.149Z,2.40
2022-12-25T04:47:37.019Z,2.40
2022-12-25T04:48:36.917Z,2.40
2022-12-25T04:49:36.953Z,2.10
2022-12-25T04:50:36.890Z,2.30
2022-12-25T04:51:36.907Z,2.20
2022-12-25T04:52:36.887Z,5.20
2022-12-25T04:53:36.892Z,2.70
2022-12-25T04:54:36.864Z,4.50
2022-12-25T04:55:36.890Z,2.60
2022-12-25T04:56:43.435Z,2.20
2022-12-25T04:57:36.872Z,2.90
2022-12-25T04:58:36.808Z,3.10
2022-12-25T04:59:36.808Z,3.30
2022-12-25T05:00:36.823Z,2.00
2022-12-25T05:01:36.933Z,2.00
2022-12-25T05:02:37.019Z,2.70
2022-12-25T05:03:36.887Z,2.20
2022-12-25T05:04:36.740Z,2.40
2022-12-25T05:05:36.793Z,2.20
2022-12-25T05:06:36.725Z,2.00
2022-12-25T05:07:36.733Z,3.00
2022-12-25T05:08:36.716Z,2.10
2022-12-25T05:09:36.723Z,2.70
2022-12-25T05:10:36.692Z,2.10
2022-12-25T05:11:36.716Z,2.40
2022-12-25T05:12:36.664Z,2.30
2022-12-25T05:13:36.712Z,1.70
2022-12-25T05:14:36.624Z,2.00
2022-12-25T05:15:36.670Z,2.00
2022-12-25T05:16:36.639Z,2.10
2022-12-25T05:17:36.679Z,5.10
2022-12-25T05:18:36.630Z,3.60
2022-12-25T05:19:36.607Z,2.30
2022-12-25T05:20:40.301Z,2.60
2022-12-25T05:21:36.569Z,2.00
2022-12-25T05:22:36.561Z,2.30
2022-12-25T05:23:36.726Z,2.00
2022-12-25T05:24:36.551Z,2.00
2022-12-25T05:25:36.557Z,2.30
2022-12-25T05:26:36.489Z,1.90
2022-12-25T05:27:36.519Z,2.50
2022-12-25T05:28:36.509Z,2.10
2022-12-25T05:29:36.850Z,2.00
2022-12-25T05:30:36.487Z,5.80
2022-12-25T05:31:36.585Z,2.20
2022-12-25T05:32:36.423Z,1.90
2022-12-25T05:33:36.455Z,1.70
2022-12-25T05:34:36.445Z,2.10
2022-12-25T05:35:36.468Z,2.20
2022-12-25T05:36:36.399Z,2.00
2022-12-25T05:37:36.468Z,2.10
2022-12-25T05:38:36.367Z,2.00
2022-12-25T05:39:36.412Z,1.90
2022-12-25T05:40:36.381Z,2.00
2022-12-25T05:41:36.378Z,2.00
2022-12-25T05:42:36.347Z,2.30
2022-12-25T05:43:36.363Z,2.00
2022-12-25T05:44:36.386Z,2.40
2022-12-25T05:45:36.353Z,1.90
2022-12-25T05:46:36.342Z,1.90
2022-12-25T05:47:36.316Z,1.80
2022-12-25T05:48:36.305Z,1.90
2022-12-25T05:49:36.333Z,2.10
2022-12-25T05:50:36.244Z,1.70
2022-12-25T05:51:36.250Z,1.80
2022-12-25T05:52:36.253Z,1.80
2022-12-25T05:53:36.243Z,2.30
2022-12-25T05:54:36.216Z,2.20
2022-12-25T05:55:36.233Z,1.70
2022-12-25T05:56:36.188Z,2.10
2022-12-25T05:57:36.245Z,1.70
2022-12-25T05:58:36.144Z,2.10
2022-12-25T05:59:36.173Z,1.70
2022-12-25T06:00:36.167Z,2.60
2022-12-25T06:01:36.276Z,3.20
2022-12-25T06:02:36.370Z,2.50
2022-12-25T06:03:36.266Z,5.30
2022-12-25T06:04:36.082Z,9.20
2022-12-25T06:05:36.161Z,3.50
2022-12-25T06:06:36.082Z,3.60
2022-12-25T06:07:36.169Z,5.00
2022-12-25T06:08:36.118Z,19.80
2022-12-25T06:09:36.065Z,5.60
2022-12-25T06:10:36.052Z,3.10
2022-12-25T06:11:36.061Z,3.80
2022-12-25T06:12:36.060Z,4.90
2022-12-25T06:13:36.160Z,7.40
2022-12-25T06:14:35.978Z,9.80
2022-12-25T06:15:35.987Z,6.40
2022-12-25T06:16:38.518Z,3.60
2022-12-25T06:17:36.038Z,3.60
2022-12-25T06:18:35.961Z,6.40
2022-12-25T06:19:35.979Z,3.80
2022-12-25T06:20:35.915Z,4.30
2022-12-25T06:21:35.927Z,3.50
2022-12-25T06:22:35.923Z,3.80
2022-12-25T06:23:36.150Z,4.20
2022-12-25T06:24:35.874Z,6.80
2022-12-25T06:25:35.948Z,6.20
2022-12-25T06:26:35.848Z,3.60
2022-12-25T06:27:35.858Z,4.50
2022-12-25T06:28:35.879Z,4.90
2022-12-25T06:29:35.862Z,2.10
2022-12-25T06:30:35.844Z,3.70
2022-12-25T06:31:35.887Z,9.20
2022-12-25T06:32:35.785Z,4.10
2022-12-25T06:33:35.834Z,2.90
2022-12-25T06:34:35.837Z,5.50
2022-12-25T06:35:35.816Z,4.20
2022-12-25T06:36:35.775Z,2.80
2022-12-25T06:37:35.776Z,2.50
2022-12-25T06:38:35.715Z,4.20
2022-12-25T06:39:35.765Z,3.50
2022-12-25T06:40:35.718Z,3.10
2022-12-25T06:41:35.738Z,4.40
2022-12-25T06:42:35.732Z,4.90
2022-12-25T06:43:35.718Z,6.40
2022-12-25T06:44:35.691Z,4.30
2022-12-25T06:45:35.736Z,7.70
2022-12-25T06:46:35.628Z,4.30
2022-12-25T06:47:35.660Z,5.90
2022-12-25T06:48:35.658Z,4.20
2022-12-25T06:49:35.625Z,7.20
2022-12-25T06:50:35.612Z,3.90
2022-12-25T06:51:35.619Z,9.60
2022-12-25T06:52:35.650Z,4.00
2022-12-25T06:53:40.272Z,4.00
2022-12-25T06:54:35.610Z,4.70
2022-12-25T06:55:35.580Z,5.20
2022-12-25T06:56:35.563Z,5.10
2022-12-25T06:57:35.563Z,4.30
2022-12-25T06:58:35.547Z,4.70
2022-12-25T06:59:35.569Z,9.10
2022-12-25T07:00:35.513Z,4.70
2022-12-25T07:01:35.715Z,4.70
2022-12-25T07:02:35.680Z,7.80
2022-12-25T07:03:35.553Z,9.10
2022-12-25T07:04:35.831Z,4.70
2022-12-25T07:05:35.478Z,6.30
2022-12-25T07:06:35.412Z,4.70
2022-12-25T07:07:35.473Z,5.60
2022-12-25T07:08:35.410Z,3.60
2022-12-25T07:09:35.386Z,4.70
2022-12-25T07:10:35.424Z,5.30
2022-12-25T07:11:35.379Z,7.20
2022-12-25T07:12:35.396Z,4.90
2022-12-25T07:13:36.032Z,4.10
2022-12-25T07:14:35.373Z,6.00
2022-12-25T07:15:35.307Z,6.30
2022-12-25T07:16:35.470Z,3.70
2022-12-25T07:17:35.303Z,3.20
2022-12-25T07:18:35.345Z,4.00
2022-12-25T07:19:39.677Z,4.20
2022-12-25T07:20:35.357Z,6.10
2022-12-25T07:21:35.403Z,5.50
2022-12-25T07:22:35.266Z,4.70
2022-12-25T07:23:35.233Z,3.30
2022-12-25T07:24:35.284Z,5.50
2022-12-25T07:25:37.427Z,5.00
2022-12-25T07:26:35.415Z,5.50
2022-12-25T07:27:35.194Z,7.20
2022-12-25T07:28:35.228Z,4.50
2022-12-25T07:29:35.171Z,5.80
2022-12-25T07:30:35.213Z,6.50
2022-12-25T07:31:35.209Z,4.00
2022-12-25T07:32:35.251Z,8.60
2022-12-25T07:33:35.146Z,5.50
2022-12-25T07:34:35.140Z,4.00
2022-12-25T07:35:35.111Z,4.20
2022-12-25T07:36:35.135Z,5.10
2022-12-25T07:37:35.081Z,6.80
2022-12-25T07:38:35.132Z,11.60
2022-12-25T07:39:35.088Z,9.90
2022-12-25T07:40:35.084Z,4.30
2022-12-25T07:41:35.029Z,4.40
2022-12-25T07:42:35.075Z,4.70
2022-12-25T07:43:35.032Z,5.30
2022-12-25T07:44:35.041Z,5.10
2022-12-25T07:45:35.116Z,8.30
2022-12-25T07:46:35.979Z,5.90
2022-12-25T07:47:34.965Z,5.80
2022-12-25T07:48:35.122Z,5.40
2022-12-25T07:49:34.946Z,12.20
2022-12-25T07:50:34.993Z,6.30
2022-12-25T07:51:34.952Z,5.00
2022-12-25T07:52:41.423Z,5.60
2022-12-25T07:53:34.993Z,6.30
2022-12-25T07:54:34.948Z,4.80
2022-12-25T07:55:34.877Z,4.30
2022-12-25T07:56:34.930Z,5.10
2022-12-25T07:57:34.893Z,5.40
2022-12-25T07:58:34.895Z,4.80
2022-12-25T07:59:34.835Z,4.60
2022-12-25T08:00:34.898Z,8.90
2022-12-25T08:01:35.175Z,8.30
2022-12-25T08:02:35.155Z,6.40
2022-12-25T08:03:35.067Z,6.60
2022-12-25T08:04:34.853Z,7.60
2022-12-25T08:05:34.817Z,5.10
2022-12-25T08:06:34.943Z,5.60
2022-12-25T08:07:34.800Z,5.40
2022-12-25T08:08:34.798Z,4.50
2022-12-25T08:09:34.817Z,8.40
2022-12-25T08:10:34.777Z,4.30
2022-12-25T08:11:34.738Z,5.30
2022-12-25T08:12:34.739Z,4.40
2022-12-25T08:13:34.738Z,3.60
2022-12-25T08:14:35.413Z,9.30
2022-12-25T08:15:34.667Z,7.00
2022-12-25T08:16:34.803Z,5.10
2022-12-25T08:17:34.681Z,6.70
2022-12-25T08:18:34.680Z,4.20
2022-12-25T08:19:34.665Z,6.30
2022-12-25T08:20:34.667Z,4.50
2022-12-25T08:21:34.644Z,4.80
2022-12-25T08:22:34.635Z,8.50
2022-12-25T08:23:34.578Z,4.30
2022-12-25T08:24:34.633Z,5.50
2022-12-25T08:25:34.555Z,8.30
2022-12-25T08:26:34.789Z,5.30
2022-12-25T08:27:34.579Z,3.00
2022-12-25T08:28:34.559Z,5.00
2022-12-25T08:29:34.550Z,4.50
2022-12-25T08:30:35.501Z,5.50
2022-12-25T08:31:35.795Z,12.30
2022-12-25T08:32:34.565Z,4.60
2022-12-25T08:33:34.500Z,8.60
2022-12-25T08:34:34.641Z,5.20
2022-12-25T08:35:34.528Z,5.10
2022-12-25T08:36:34.505Z,5.60
2022-12-25T08:37:34.449Z,3.50
2022-12-25T08:38:34.475Z,5.60
2022-12-25T08:39:34.524Z,5.60
2022-12-25T08:40:34.449Z,3.30
2022-12-25T08:41:34.405Z,3.90
2022-12-25T08:42:34.425Z,9.30
2022-12-25T08:43:34.520Z,5.90
2022-12-25T08:44:34.497Z,7.90
2022-12-25T08:45:35.415Z,7.00
2022-12-25T08:46:34.395Z,7.60
2022-12-25T08:47:34.333Z,5.70
2022-12-25T08:48:34.400Z,4.80
2022-12-25T08:49:34.304Z,7.00
2022-12-25T08:50:34.358Z,3.70
2022-12-25T08:51:34.329Z,3.90
2022-12-25T08:52:34.344Z,5.10
2022-12-25T08:53:34.309Z,3.50
2022-12-25T08:54:34.277Z,4.20
2022-12-25T08:55:34.229Z,4.10
2022-12-25T08:56:34.318Z,7.70
2022-12-25T08:57:34.217Z,4.30
2022-12-25T08:58:34.306Z,4.60
2022-12-25T08:59:34.342Z,5.70
2022-12-25T09:00:34.211Z,5.30
2022-12-25T09:01:34.251Z,4.80
2022-12-25T09:02:34.434Z,5.90
2022-12-25T09:03:34.254Z,5.40
2022-12-25T09:04:34.223Z,5.70
2022-12-25T09:05:34.149Z,7.00
2022-12-25T09:06:34.139Z,4.70
2022-12-25T09:07:34.122Z,6.50
2022-12-25T09:08:34.196Z,10.40
2022-12-25T09:09:34.090Z,10.80
2022-12-25T09:10:34.125Z,7.20
2022-12-25T09:11:34.149Z,4.20
2022-12-25T09:12:34.080Z,3.80
2022-12-25T09:13:34.337Z,8.70
2022-12-25T09:14:35.036Z,9.30
2022-12-25T09:15:34.248Z,5.70
2022-12-25T09:16:34.139Z,4.90
2022-12-25T09:17:34.002Z,7.90
2022-12-25T09:18:34.060Z,5.10
2022-12-25T09:19:34.098Z,7.00
2022-12-25T09:20:33.995Z,8.80
2022-12-25T09:21:33.995Z,12.80
2022-12-25T09:22:34.006Z,13.00
2022-12-25T09:23:33.934Z,7.80
2022-12-25T09:24:33.998Z,8.20
2022-12-25T09:25:33.910Z,8.60
2022-12-25T09:26:34.035Z,11.10
2022-12-25T09:27:33.959Z,14.50
2022-12-25T09:28:33.911Z,8.00
2022-12-25T09:29:33.966Z,7.10
2022-12-25T09:30:33.960Z,7.50
2022-12-25T09:31:33.976Z,17.90
2022-12-25T09:32:33.884Z,6.60
2022-12-25T09:33:33.876Z,9.60
2022-12-25T09:34:33.879Z,7.90
2022-12-25T09:35:33.830Z,11.60
2022-12-25T09:36:34.241Z,5.90
2022-12-25T09:37:33.791Z,10.20
2022-12-25T09:38:33.814Z,6.90
2022-12-25T09:39:33.782Z,12.20
2022-12-25T09:40:33.859Z,11.40
2022-12-25T09:41:33.906Z,7.40
2022-12-25T09:42:33.764Z,7.80
2022-12-25T09:43:33.762Z,9.20
2022-12-25T09:44:33.771Z,7.50
2022-12-25T09:45:33.956Z,8.40
2022-12-25T09:46:37.215Z,12.20
2022-12-25T09:47:33.701Z,8.80
2022-12-25T09:48:33.687Z,6.60
2022-12-25T09:49:33.659Z,9.00
2022-12-25T09:50:33.739Z,7.90
2022-12-25T09:51:33.655Z,8.20
2022-12-25T09:52:33.640Z,8.70
2022-12-25T09:53:33.627Z,12.40
2022-12-25T09:54:33.632Z,6.00
2022-12-25T09:55:33.587Z,7.00
2022-12-25T09:56:33.645Z,6.90
2022-12-25T09:57:34.569Z,8.10
2022-12-25T09:58:33.652Z,12.50
2022-12-25T09:59:33.579Z,12.70
2022-12-25T10:00:33.561Z,10.20
2022-12-25T10:01:33.688Z,6.80
2022-12-25T10:02:33.671Z,7.30
2022-12-25T10:03:33.546Z,8.40
2022-12-25T10:04:39.127Z,12.90
2022-12-25T10:05:33.513Z,8.20
2022-12-25T10:06:33.502Z,9.30
2022-12-25T10:07:33.447Z,6.90
2022-12-25T10:08:33.572Z,6.50
2022-12-25T10:09:33.430Z,8.30
2022-12-25T10:10:33.961Z,7.30
2022-12-25T10:11:34.014Z,5.80
2022-12-25T10:12:33.425Z,11.30
2022-12-25T10:13:33.413Z,8.10
2022-12-25T10:14:33.423Z,8.30
2022-12-25T10:15:33.499Z,9.10
2022-12-25T10:16:35.950Z,6.50
2022-12-25T10:17:33.351Z,3.80
2022-12-25T10:18:33.402Z,9.90
2022-12-25T10:19:33.354Z,8.20
2022-12-25T10:20:33.355Z,5.50
2022-12-25T10:21:33.342Z,5.20
2022-12-25T10:22:33.335Z,9.70
2022-12-25T10:23:33.312Z,6.70
2022-12-25T10:24:33.332Z,8.40
2022-12-25T10:25:33.363Z,9.30
2022-12-25T10:26:33.318Z,4.20
2022-12-25T10:27:33.353Z,5.90
2022-12-25T10:28:33.257Z,5.60
2022-12-25T10:29:33.254Z,4.70
2022-12-25T10:30:33.230Z,6.80
2022-12-25T10:31:33.363Z,7.20
2022-12-25T10:32:33.266Z,4.70
2022-12-25T10:33:33.220Z,5.90
2022-12-25T10:34:33.219Z,5.80
2022-12-25T10:35:33.209Z,6.30
2022-12-25T10:36:33.170Z,6.70
2022-12-25T10:37:33.138Z,4.20
2022-12-25T10:38:33.201Z,7.30
2022-12-25T10:39:33.434Z,10.90
2022-12-25T10:40:33.197Z,6.40
2022-12-25T10:41:33.173Z,5.30
2022-12-25T10:42:33.147Z,5.80
2022-12-25T10:43:33.070Z,3.80
2022-12-25T10:44:33.129Z,4.70
2022-12-25T10:45:33.196Z,5.60
2022-12-25T10:46:33.253Z,8.50
2022-12-25T10:47:33.251Z,12.80
2022-12-25T10:48:33.105Z,13.40
2022-12-25T10:49:33.039Z,9.70
2022-12-25T10:50:33.045Z,6.20
2022-12-25T10:51:32.999Z,7.60
2022-12-25T10:52:33.478Z,6.00
2022-12-25T10:53:32.975Z,5.60
2022-12-25T10:54:32.971Z,6.70
2022-12-25T10:55:32.971Z,7.70
2022-12-25T10:56:33.026Z,6.40
2022-12-25T10:57:32.933Z,10.00
2022-12-25T10:58:32.997Z,8.40
2022-12-25T10:59:32.962Z,8.00
2022-12-25T11:00:32.954Z,9.30
2022-12-25T11:01:33.107Z,6.40
2022-12-25T11:02:33.092Z,7.00
2022-12-25T11:03:33.096Z,8.30
2022-12-25T11:04:32.936Z,8.00
2022-12-25T11:05:32.823Z,11.90
2022-12-25T11:06:32.865Z,10.50
2022-12-25T11:07:32.963Z,15.10
2022-12-25T11:08:32.832Z,11.20
2022-12-25T11:09:32.784Z,11.50
2022-12-25T11:10:33.064Z,9.90
2022-12-25T11:11:32.821Z,7.40
2022-12-25T11:12:32.789Z,8.60
2022-12-25T11:13:32.766Z,16.60
2022-12-25T11:14:32.746Z,8.10
2022-12-25T11:15:32.731Z,9.00
2022-12-25T11:16:36.332Z,8.50
2022-12-25T11:17:32.723Z,10.10
2022-12-25T11:18:32.758Z,10.70
2022-12-25T11:19:32.758Z,10.20
2022-12-25T11:20:32.769Z,9.70
2022-12-25T11:21:32.691Z,8.50
2022-12-25T11:22:32.736Z,11.40
2022-12-25T11:23:32.683Z,9.50
2022-12-25T11:24:32.764Z,11.20
2022-12-25T11:25:32.703Z,12.50
2022-12-25T11:26:32.658Z,8.80
2022-12-25T11:27:32.687Z,16.60
2022-12-25T11:28:32.710Z,10.70
2022-12-25T11:29:32.623Z,14.40
2022-12-25T11:30:32.601Z,13.20
2022-12-25T11:31:32.722Z,17.60
2022-12-25T11:32:32.574Z,13.80
2022-12-25T11:33:32.610Z,18.20
2022-12-25T11:34:32.533Z,20.40
2022-12-25T11:35:32.557Z,23.30
2022-12-25T11:36:32.528Z,32.50
2022-12-25T11:37:32.522Z,17.40
2022-12-25T11:38:32.491Z,16.20
2022-12-25T11:39:32.634Z,10.60
2022-12-25T11:40:32.540Z,16.80
2022-12-25T11:41:32.658Z,12.20
2022-12-25T11:42:32.596Z,11.50
2022-12-25T11:43:32.695Z,10.60
2022-12-25T11:44:32.400Z,16.10
2022-12-25T11:45:32.461Z,12.10
2022-12-25T11:46:32.502Z,11.50
2022-12-25T11:47:32.486Z,9.30
2022-12-25T11:48:32.408Z,11.00
2022-12-25T11:49:32.394Z,11.40
2022-12-25T11:50:32.394Z,15.20
2022-12-25T11:51:32.512Z,10.80
2022-12-25T11:52:32.374Z,10.60
2022-12-25T11:53:32.393Z,11.20
2022-12-25T11:54:32.309Z,11.90
2022-12-25T11:55:32.310Z,10.80
2022-12-25T11:56:36.588Z,16.80
2022-12-25T11:57:32.311Z,17.40
2022-12-25T11:58:32.288Z,15.80
2022-12-25T11:59:32.268Z,16.70
2022-12-25T12:00:32.274Z,18.40
2022-12-25T12:01:32.426Z,16.10
2022-12-25T12:02:32.435Z,11.40
2022-12-25T12:03:32.383Z,13.40
2022-12-25T12:04:38.511Z,19.90
2022-12-25T12:05:32.237Z,18.40
2022-12-25T12:06:32.526Z,15.50
2022-12-25T12:07:32.185Z,14.90
2022-12-25T12:08:32.171Z,18.50
2022-12-25T12:09:32.208Z,16.10
2022-12-25T12:10:32.183Z,20.00
2022-12-25T12:11:32.187Z,23.30
2022-12-25T12:12:32.141Z,17.00
2022-12-25T12:13:32.136Z,19.30
2022-12-25T12:14:32.245Z,17.40
2022-12-25T12:15:32.163Z,17.90
2022-12-25T12:16:32.191Z,20.10
2022-12-25T12:17:32.108Z,22.70
2022-12-25T12:18:32.029Z,20.60
2022-12-25T12:19:32.064Z,21.00
2022-12-25T12:20:32.075Z,20.00
2022-12-25T12:21:32.042Z,19.00
2022-12-25T12:22:32.024Z,19.70
2022-12-25T12:23:32.058Z,23.20
2022-12-25T12:24:31.988Z,14.80
2022-12-25T12:25:32.126Z,23.50
2022-12-25T12:26:31.941Z,24.00
2022-12-25T12:27:31.965Z,19.70
2022-12-25T12:28:31.955Z,18.30
2022-12-25T12:29:31.963Z,18.80
2022-12-25T12:30:31.968Z,16.90
2022-12-25T12:31:32.008Z,19.00
2022-12-25T12:32:31.899Z,24.70
2022-12-25T12:33:31.941Z,20.20
2022-12-25T12:34:31.865Z,22.00
2022-12-25T12:35:31.907Z,20.80
2022-12-25T12:36:36.439Z,16.80
2022-12-25T12:37:31.891Z,19.30
2022-12-25T12:38:31.871Z,16.30
2022-12-25T12:39:31.923Z,18.90
2022-12-25T12:40:31.951Z,16.30
2022-12-25T12:41:31.833Z,15.00
2022-12-25T12:42:31.829Z,19.50
2022-12-25T12:43:31.789Z,15.80
2022-12-25T12:44:31.783Z,14.50
2022-12-25T12:45:31.882Z,22.40
2022-12-25T12:46:32.027Z,15.10
2022-12-25T12:47:31.761Z,18.00
2022-12-25T12:48:31.752Z,18.30
2022-12-25T12:49:31.721Z,14.70
2022-12-25T12:50:31.718Z,21.30
2022-12-25T12:51:31.737Z,13.30
2022-12-25T12:52:31.665Z,15.30
2022-12-25T12:53:31.718Z,12.10
2022-12-25T12:54:31.662Z,19.20
2022-12-25T12:55:31.715Z,15.60
2022-12-25T12:56:31.668Z,16.20
2022-12-25T12:57:31.682Z,23.60
2022-12-25T12:58:31.635Z,17.20
2022-12-25T12:59:31.659Z,19.10
2022-12-25T13:00:31.796Z,13.90
2022-12-25T13:01:31.767Z,14.90
2022-12-25T13:02:31.810Z,11.40
2022-12-25T13:03:31.650Z,15.10
2022-12-25T13:04:31.547Z,12.20
2022-12-25T13:05:34.665Z,11.70
2022-12-25T13:06:31.551Z,14.10
2022-12-25T13:07:31.531Z,16.90
2022-12-25T13:08:31.534Z,16.90
2022-12-25T13:09:31.566Z,18.80
2022-12-25T13:10:31.557Z,17.40
2022-12-25T13:11:31.528Z,22.40
2022-12-25T13:12:31.457Z,16.80